createdAt,value
2023-03-06T00:00:18.471Z,98006.03
2023-03-06T00:02:46.418Z,98004.19
2023-03-06T00:05:14.749Z,98000.47
2023-03-06T00:07:42.869Z,98002.94
2023-03-06T00:10:14.195Z,98007.25
2023-03-06T00:12:42.046Z,98008.13
2023-03-06T00:15:12.616Z,98003.13
2023-03-06T00:17:40.704Z,97994.09
2023-03-06T00:20:10.940Z,97997.91
2023-03-06T00:22:38.948Z,97988.16
2023-03-06T00:25:08.463Z,97986.50
2023-03-06T00:27:36.153Z,97989.53
2023-03-06T00:30:03.922Z,97980.19
2023-03-06T00:32:33.177Z,97976.91
2023-03-06T00:35:02.164Z,97978.25
2023-03-06T00:37:29.989Z,97979.81
2023-03-06T00:39:57.671Z,97971.56
2023-03-06T00:42:25.768Z,97962.91
2023-03-06T00:44:53.645Z,97966.63
2023-03-06T00:47:23.108Z,97966.59
2023-03-06T00:49:52.252Z,97972.06
2023-03-06T00:52:19.958Z,97967.03
2023-03-06T00:54:47.682Z,97961.63
2023-03-06T00:57:15.449Z,97958.19
2023-03-06T00:59:43.194Z,97946.75
2023-03-06T01:02:11.109Z,97946.06
2023-03-06T01:04:38.875Z,97946.69
2023-03-06T01:07:08.330Z,97951.75
2023-03-06T01:09:36.018Z,97943.75
2023-03-06T01:12:03.818Z,97942.66
2023-03-06T01:14:32.357Z,97947.69
2023-03-06T01:17:00.121Z,97940.34
2023-03-06T01:19:27.947Z,97940.00
2023-03-06T01:21:55.628Z,97937.72
2023-03-06T01:24:25.804Z,97936.31
2023-03-06T01:26:57.599Z,97941.25
2023-03-06T01:29:26.320Z,97938.94
2023-03-06T01:31:54.159Z,97934.41
2023-03-06T01:34:21.942Z,97928.88
2023-03-06T01:36:49.699Z,97926.31
2023-03-06T01:39:17.494Z,97921.50
2023-03-06T01:41:46.631Z,97920.63
2023-03-06T01:44:14.412Z,97916.88
2023-03-06T01:46:42.962Z,97920.75
2023-03-06T01:49:17.234Z,97916.75
2023-03-06T01:51:50.842Z,97909.91
2023-03-06T01:54:23.660Z,97894.91
2023-03-06T01:56:57.109Z,97895.00
2023-03-06T01:59:26.901Z,97896.72
2023-03-06T02:01:55.810Z,97888.44
2023-03-06T02:04:24.826Z,97889.59
2023-03-06T02:06:52.953Z,97885.94
2023-03-06T02:09:20.837Z,97876.28
2023-03-06T02:11:49.361Z,97875.13
2023-03-06T02:14:19.042Z,97869.91
2023-03-06T02:16:46.890Z,97864.38
2023-03-06T02:19:27.238Z,97865.34
2023-03-06T02:21:55.018Z,97870.56
2023-03-06T02:24:33.064Z,97860.72
2023-03-06T02:27:05.393Z,97859.59
2023-03-06T02:29:33.630Z,97858.63
2023-03-06T02:32:04.029Z,97857.78
2023-03-06T02:34:56.731Z,97857.88
2023-03-06T02:37:27.871Z,97848.63
2023-03-06T02:40:08.122Z,97855.41
2023-03-06T02:42:37.467Z,97843.91
2023-03-06T02:45:10.784Z,97850.13
2023-03-06T02:47:38.592Z,97853.69
2023-03-06T02:50:06.776Z,97850.06
2023-03-06T02:52:34.589Z,97848.09
2023-03-06T02:55:03.502Z,97844.63
2023-03-06T02:57:31.220Z,97835.56
2023-03-06T03:00:01.081Z,97846.09
2023-03-06T03:02:28.942Z,97836.09
2023-03-06T03:04:56.722Z,97832.28
2023-03-06T03:07:24.538Z,97837.69
2023-03-06T03:09:52.436Z,97839.78
2023-03-06T03:12:22.353Z,97837.72
2023-03-06T03:14:50.415Z,97837.00
2023-03-06T03:17:19.526Z,97827.84
2023-03-06T03:19:47.346Z,97826.91
2023-03-06T03:22:15.258Z,97824.06
2023-03-06T03:24:43.134Z,97823.28
2023-03-06T03:27:11.703Z,97813.34
2023-03-06T03:29:41.242Z,97811.34
2023-03-06T03:32:09.633Z,97810.13
2023-03-06T03:34:39.214Z,97810.97
2023-03-06T03:37:07.178Z,97819.41
2023-03-06T03:39:34.929Z,97814.16
2023-03-06T03:42:04.426Z,97809.06
2023-03-06T03:44:32.631Z,97813.25
2023-03-06T03:47:01.601Z,97812.19
2023-03-06T03:49:29.728Z,97813.47
2023-03-06T03:51:58.845Z,97809.41
2023-03-06T03:54:29.924Z,97811.47
2023-03-06T03:56:58.156Z,97812.97
2023-03-06T03:59:30.974Z,97796.03
2023-03-06T04:02:27.835Z,97803.63
2023-03-06T04:05:05.080Z,97796.59
2023-03-06T04:07:34.545Z,97798.16
2023-03-06T04:10:02.310Z,97792.44
2023-03-06T04:12:31.282Z,97784.88
2023-03-06T04:14:59.881Z,97792.91
2023-03-06T04:17:28.505Z,97784.09
2023-03-06T04:19:57.288Z,97790.56
2023-03-06T04:22:25.229Z,97788.31
2023-03-06T04:24:55.048Z,97785.81
2023-03-06T04:27:23.211Z,97783.88
2023-03-06T04:29:51.411Z,97772.13
2023-03-06T04:32:21.339Z,97779.44
2023-03-06T04:34:49.334Z,97775.50
2023-03-06T04:37:25.126Z,97765.56
2023-03-06T04:39:55.700Z,97775.53
2023-03-06T04:42:23.468Z,97774.34
2023-03-06T04:44:51.180Z,97767.56
2023-03-06T04:47:20.288Z,97766.47
2023-03-06T04:49:48.026Z,97766.47
2023-03-06T04:52:15.958Z,97758.50
2023-03-06T04:54:43.871Z,97772.06
2023-03-06T04:57:14.107Z,97768.75
2023-03-06T04:59:41.816Z,97754.53
2023-03-06T05:02:09.770Z,97765.38
2023-03-06T05:04:37.768Z,97756.22
2023-03-06T05:07:05.608Z,97758.84
2023-03-06T05:09:35.377Z,97768.63
2023-03-06T05:12:04.633Z,97756.22
2023-03-06T05:14:33.667Z,97757.63
2023-03-06T05:17:01.837Z,97749.94
2023-03-06T05:19:29.556Z,97748.50
2023-03-06T05:21:57.468Z,97754.25
2023-03-06T05:24:25.196Z,97749.56
2023-03-06T05:26:52.949Z,97744.25
2023-03-06T05:29:21.014Z,97741.84
2023-03-06T05:31:50.234Z,97745.56
2023-03-06T05:34:18.618Z,97744.31
2023-03-06T05:36:47.295Z,97745.25
2023-03-06T05:39:15.175Z,97745.59
2023-03-06T05:41:42.919Z,97742.84
2023-03-06T05:44:10.674Z,97741.50
2023-03-06T05:46:38.757Z,97745.66
2023-03-06T05:49:08.135Z,97743.91
2023-03-06T05:51:35.862Z,97745.22
2023-03-06T05:54:03.741Z,97743.72
2023-03-06T05:56:31.447Z,97735.09
2023-03-06T05:58:59.326Z,97733.84
2023-03-06T06:01:28.446Z,97740.16
2023-03-06T06:03:56.135Z,97739.25
2023-03-06T06:06:25.168Z,97737.25
2023-03-06T06:08:52.936Z,97717.91
2023-03-06T06:11:21.029Z,97729.19
2023-03-06T06:13:49.397Z,97737.56
2023-03-06T06:16:19.101Z,97736.41
2023-03-06T06:18:47.292Z,97741.31
2023-03-06T06:21:15.795Z,97738.59
2023-03-06T06:23:44.919Z,97740.53
2023-03-06T06:26:12.759Z,97737.19
2023-03-06T06:28:40.499Z,97749.84
2023-03-06T06:31:10.563Z,97751.63
2023-03-06T06:33:38.462Z,97737.28
2023-03-06T06:36:06.629Z,97744.91
2023-03-06T06:38:34.654Z,97740.09
2023-03-06T06:41:33.454Z,97741.16
2023-03-06T06:43:54.267Z,97741.66
2023-03-06T06:47:02.652Z,97739.63
2023-03-06T06:49:09.762Z,97740.94
2023-03-06T06:51:37.610Z,97743.88
2023-03-06T06:54:05.346Z,97749.81
2023-03-06T06:56:34.663Z,97751.22
2023-03-06T06:59:15.761Z,97746.06
2023-03-06T07:01:44.936Z,97752.53
2023-03-06T07:04:13.647Z,97756.94
2023-03-06T07:06:41.720Z,97749.66
2023-03-06T07:09:09.791Z,97747.38
2023-03-06T07:11:40.185Z,97762.47
2023-03-06T07:14:08.203Z,97755.25
2023-03-06T07:16:36.069Z,97760.75
2023-03-06T07:19:04.236Z,97755.00
2023-03-06T07:21:32.117Z,97758.22
2023-03-06T07:24:00.041Z,97759.97
2023-03-06T07:26:28.966Z,97768.66
2023-03-06T07:28:58.122Z,97766.47
2023-03-06T07:31:28.888Z,97765.94
2023-03-06T07:33:57.011Z,97770.28
2023-03-06T07:36:25.211Z,97772.19
2023-03-06T07:38:52.987Z,97772.44
2023-03-06T07:41:22.650Z,97768.94
2023-03-06T07:43:51.088Z,97782.38
2023-03-06T07:46:20.381Z,97784.44
2023-03-06T07:48:48.409Z,97784.06
2023-03-06T07:51:17.488Z,97783.75
2023-03-06T07:53:45.266Z,97778.81
2023-03-06T07:56:13.684Z,97783.28
2023-03-06T07:58:43.764Z,97782.06
2023-03-06T08:01:13.439Z,97783.22
2023-03-06T08:03:43.263Z,97787.47
2023-03-06T08:06:13.257Z,97779.91
2023-03-06T08:08:42.941Z,97787.19
2023-03-06T08:11:12.044Z,97785.38
2023-03-06T08:13:40.789Z,97785.56
2023-03-06T08:16:10.260Z,97784.34
2023-03-06T08:18:39.582Z,97790.97
2023-03-06T08:21:10.639Z,97792.69
2023-03-06T08:23:39.451Z,97785.22
2023-03-06T08:26:09.278Z,97795.59
2023-03-06T08:28:37.064Z,97793.81
2023-03-06T08:31:10.608Z,97793.44
2023-03-06T08:33:39.189Z,97796.34
2023-03-06T08:36:08.833Z,97786.06
2023-03-06T08:38:36.603Z,97797.81
2023-03-06T08:41:04.728Z,97802.78
2023-03-06T08:43:32.544Z,97805.00
2023-03-06T08:46:00.560Z,97802.00
2023-03-06T08:48:28.875Z,97812.72
2023-03-06T08:50:56.915Z,97804.97
2023-03-06T08:53:41.628Z,97811.91
2023-03-06T08:56:16.149Z,97803.00
2023-03-06T08:58:43.941Z,97804.53
2023-03-06T09:01:15.765Z,97801.69
2023-03-06T09:03:43.751Z,97804.19
2023-03-06T09:06:11.497Z,97805.69
2023-03-06T09:08:44.486Z,97810.34
2023-03-06T09:11:12.720Z,97808.94
2023-03-06T09:13:41.036Z,97814.59
2023-03-06T09:16:09.452Z,97811.34
2023-03-06T09:18:37.308Z,97809.22
2023-03-06T09:21:05.678Z,97812.03
2023-03-06T09:23:33.762Z,97812.19
2023-03-06T09:26:03.372Z,97817.31
2023-03-06T09:28:31.147Z,97806.06
2023-03-06T09:30:59.195Z,97809.72
2023-03-06T09:33:28.667Z,97814.03
2023-03-06T09:35:58.537Z,97816.75
2023-03-06T09:38:28.503Z,97810.09
2023-03-06T09:41:05.833Z,97822.28
2023-03-06T09:43:37.996Z,97815.91
2023-03-06T09:46:20.339Z,97820.41
2023-03-06T09:49:02.051Z,97813.88
2023-03-06T09:51:37.698Z,97822.78
2023-03-06T09:54:12.118Z,97828.19
2023-03-06T09:56:45.046Z,97816.94
2023-03-06T09:59:17.270Z,97819.13
2023-03-06T10:01:50.812Z,97818.44
2023-03-06T10:04:37.689Z,97812.13
2023-03-06T10:07:14.122Z,97808.91
2023-03-06T10:09:47.347Z,97809.38
2023-03-06T10:12:25.638Z,97810.72
2023-03-06T10:15:03.811Z,97813.94
2023-03-06T10:17:36.507Z,97814.59
2023-03-06T10:20:16.338Z,97816.81
2023-03-06T10:22:59.998Z,97805.75
2023-03-06T10:25:32.416Z,97808.25
2023-03-06T10:28:13.852Z,97806.34
2023-03-06T10:30:46.998Z,97807.06
2023-03-06T10:33:24.448Z,97815.38
2023-03-06T10:35:54.128Z,97813.81
2023-03-06T10:38:24.557Z,97812.81
2023-03-06T10:41:06.432Z,97807.81
2023-03-06T10:43:37.138Z,97811.16
2023-03-06T10:46:06.097Z,97815.25
2023-03-06T10:48:37.066Z,97812.25
2023-03-06T10:51:19.006Z,97811.31
2023-03-06T10:53:52.587Z,97807.59
2023-03-06T10:56:32.886Z,97813.44
2023-03-06T10:59:14.059Z,97809.34
2023-03-06T11:01:42.906Z,97810.47
2023-03-06T11:04:23.867Z,97814.69
2023-03-06T11:07:07.252Z,97814.91
2023-03-06T11:09:36.014Z,97812.75
2023-03-06T11:12:21.814Z,97814.09
2023-03-06T11:15:09.352Z,97798.56
2023-03-06T11:17:39.243Z,97806.56
2023-03-06T11:20:21.401Z,97808.91
2023-03-06T11:22:52.926Z,97796.69
2023-03-06T11:25:22.976Z,97807.84
2023-03-06T11:27:58.738Z,97815.66
2023-03-06T11:30:35.852Z,97803.47
2023-03-06T11:33:09.790Z,97801.00
2023-03-06T11:35:50.054Z,97799.88
2023-03-06T11:38:23.606Z,97789.31
2023-03-06T11:40:54.991Z,97792.81
2023-03-06T11:43:26.366Z,97790.25
2023-03-06T11:46:01.320Z,97788.09
2023-03-06T11:48:35.342Z,97784.84
2023-03-06T11:51:12.565Z,97786.28
2023-03-06T11:53:41.731Z,97774.22
2023-03-06T11:56:30.533Z,97770.00
2023-03-06T11:59:17.402Z,97777.63
2023-03-06T12:01:55.546Z,97771.34
2023-03-06T12:04:42.352Z,97759.97
2023-03-06T12:07:21.906Z,97757.91
2023-03-06T12:09:56.739Z,97752.69
2023-03-06T12:12:55.481Z,97752.44
2023-03-06T12:15:38.414Z,97758.69
2023-03-06T12:18:27.813Z,97755.16
2023-03-06T12:21:04.154Z,97747.41
2023-03-06T12:23:49.181Z,97749.34
2023-03-06T12:26:35.111Z,97754.81
2023-03-06T12:29:23.874Z,97753.34
2023-03-06T12:32:03.949Z,97754.09
2023-03-06T12:34:47.835Z,97757.31
2023-03-06T12:37:25.704Z,97763.09
2023-03-06T12:40:24.512Z,97744.50
2023-03-06T12:43:20.722Z,97742.22
2023-03-06T12:45:49.683Z,97731.88
2023-03-06T12:48:23.553Z,97729.06
2023-03-06T12:50:53.369Z,97737.56
2023-03-06T12:53:27.432Z,97737.09
2023-03-06T12:55:57.221Z,97735.63
2023-03-06T12:58:50.984Z,97728.25
2023-03-06T13:01:40.193Z,97731.72
2023-03-06T13:04:29.074Z,97731.44
2023-03-06T13:07:27.864Z,97727.91
2023-03-06T13:10:08.394Z,97730.50
2023-03-06T13:12:54.233Z,97732.31
2023-03-06T13:15:34.757Z,97735.91
2023-03-06T13:18:03.568Z,97725.31
2023-03-06T13:20:36.194Z,97725.41
2023-03-06T13:23:44.581Z,97722.94
2023-03-06T13:26:52.116Z,97721.56
2023-03-06T13:30:02.577Z,97718.25
2023-03-06T13:32:35.372Z,97717.63
2023-03-06T13:35:03.431Z,97717.22
2023-03-06T13:37:39.117Z,97720.41
2023-03-06T13:40:34.121Z,97720.34
2023-03-06T13:43:22.859Z,97724.75
2023-03-06T13:45:51.502Z,97719.75
2023-03-06T13:48:47.337Z,97721.88
2023-03-06T13:51:23.886Z,97715.59
2023-03-06T13:54:17.923Z,97711.13
2023-03-06T13:57:25.930Z,97711.38
2023-03-06T14:00:27.086Z,97705.97
2023-03-06T14:03:11.457Z,97709.50
2023-03-06T14:05:44.244Z,97705.59
2023-03-06T14:08:16.218Z,97705.97
2023-03-06T14:10:46.018Z,97697.47
2023-03-06T14:13:19.728Z,97697.19
2023-03-06T14:15:50.730Z,97703.69
2023-03-06T14:18:23.868Z,97698.16
2023-03-06T14:20:56.424Z,97690.66
2023-03-06T14:23:27.616Z,97690.41
2023-03-06T14:25:59.906Z,97693.06
2023-03-06T14:28:29.413Z,97686.06
2023-03-06T14:31:01.374Z,97689.28
2023-03-06T14:33:33.422Z,97689.34
2023-03-06T14:36:04.435Z,97693.13
2023-03-06T14:38:36.268Z,97686.22
2023-03-06T14:41:05.850Z,97684.06
2023-03-06T14:43:33.555Z,97688.66
2023-03-06T14:46:05.057Z,97677.41
2023-03-06T14:48:42.282Z,97687.25
2023-03-06T14:51:16.824Z,97681.59
2023-03-06T14:53:45.826Z,97680.09
2023-03-06T14:56:17.846Z,97679.50
2023-03-06T14:58:53.188Z,97671.69
2023-03-06T15:01:30.239Z,97674.97
2023-03-06T15:04:00.481Z,97674.97
2023-03-06T15:06:33.162Z,97677.44
2023-03-06T15:09:07.206Z,97679.16
2023-03-06T15:11:54.819Z,97678.63
2023-03-06T15:14:29.343Z,97678.19
2023-03-06T15:17:15.349Z,97671.72
2023-03-06T15:19:43.213Z,97678.34
2023-03-06T15:22:28.089Z,97675.72
2023-03-06T15:25:15.224Z,97673.63
2023-03-06T15:27:50.056Z,97667.56
2023-03-06T15:30:29.549Z,97678.22
2023-03-06T15:33:25.150Z,97687.09
2023-03-06T15:35:54.990Z,97684.81
2023-03-06T15:38:26.927Z,97782.03
2023-03-06T15:40:56.866Z,97750.88
2023-03-06T15:43:24.811Z,97737.44
2023-03-06T15:45:57.792Z,97741.75
2023-03-06T15:48:27.203Z,97759.00
2023-03-06T15:50:55.270Z,97792.38
2023-03-06T15:53:22.979Z,97802.25
2023-03-06T15:55:51.425Z,97762.84
2023-03-06T15:58:23.514Z,97718.25
2023-03-06T16:00:51.714Z,97718.31
2023-03-06T16:03:19.784Z,97704.84
2023-03-06T16:05:49.072Z,97708.28
2023-03-06T16:08:16.821Z,97713.78
2023-03-06T16:10:46.788Z,97718.31
2023-03-06T16:13:20.331Z,97720.59
2023-03-06T16:15:51.000Z,97717.00
2023-03-06T16:18:19.027Z,97716.50
2023-03-06T16:20:47.388Z,97712.88
2023-03-06T16:23:16.628Z,97716.38
2023-03-06T16:25:48.719Z,97713.56
2023-03-06T16:28:17.141Z,97705.66
2023-03-06T16:30:45.736Z,97711.44
2023-03-06T16:33:14.393Z,97702.97
2023-03-06T16:35:44.484Z,97707.25
2023-03-06T16:38:12.510Z,97714.66
2023-03-06T16:40:42.543Z,97713.44
2023-03-06T16:43:13.338Z,97721.94
2023-03-06T16:45:42.590Z,97722.81
2023-03-06T16:48:15.280Z,97717.06
2023-03-06T16:50:43.135Z,97719.94
2023-03-06T16:53:10.888Z,97722.78
2023-03-06T16:55:38.794Z,97723.41
2023-03-06T16:58:08.631Z,97725.31
2023-03-06T17:00:36.451Z,97715.53
2023-03-06T17:03:04.356Z,97717.00
2023-03-06T17:05:34.117Z,97716.50
2023-03-06T17:08:02.148Z,97722.53
2023-03-06T17:10:30.039Z,97721.25
2023-03-06T17:12:58.127Z,97731.91
2023-03-06T17:15:27.248Z,97733.91
2023-03-06T17:17:57.125Z,97734.16
2023-03-06T17:20:24.914Z,97726.34
2023-03-06T17:22:52.750Z,97731.25
2023-03-06T17:25:20.814Z,97734.63
2023-03-06T17:27:48.632Z,97740.41
2023-03-06T17:30:16.840Z,97746.09
2023-03-06T17:32:46.024Z,97736.88
2023-03-06T17:35:13.801Z,97746.00
2023-03-06T17:37:41.675Z,97753.41
2023-03-06T17:40:11.190Z,97758.19
2023-03-06T17:42:38.939Z,97761.97
2023-03-06T17:45:09.321Z,97752.91
2023-03-06T17:47:37.302Z,97748.38
2023-03-06T17:50:06.987Z,97757.38
2023-03-06T17:52:34.901Z,97751.53
2023-03-06T17:55:02.654Z,97748.66
2023-03-06T17:57:30.507Z,97759.75
2023-03-06T17:59:58.337Z,97761.78
2023-03-06T18:02:26.228Z,97760.47
2023-03-06T18:04:56.843Z,97771.69
2023-03-06T18:07:26.528Z,97756.09
2023-03-06T18:09:54.384Z,97762.97
2023-03-06T18:12:22.168Z,97758.22
2023-03-06T18:14:50.651Z,97780.63
2023-03-06T18:17:18.368Z,97769.19
2023-03-06T18:19:46.123Z,97777.56
2023-03-06T18:22:13.926Z,97766.22
2023-03-06T18:24:42.994Z,97769.91
2023-03-06T18:27:13.441Z,97768.75
2023-03-06T18:29:41.562Z,97764.78
2023-03-06T18:32:10.668Z,97764.41
2023-03-06T18:34:38.536Z,97774.47
2023-03-06T18:37:06.694Z,97765.63
2023-03-06T18:39:34.523Z,97767.50
2023-03-06T18:42:03.553Z,97761.19
2023-03-06T18:44:31.347Z,97763.41
2023-03-06T18:46:59.240Z,97763.97
2023-03-06T18:49:27.113Z,97772.13
2023-03-06T18:51:57.311Z,97772.09
2023-03-06T18:54:28.375Z,97768.78
2023-03-06T18:56:56.194Z,97769.84
2023-03-06T18:59:25.875Z,97768.41
2023-03-06T19:01:57.579Z,97770.50
2023-03-06T19:04:25.889Z,97770.16
2023-03-06T19:06:54.666Z,97761.66
2023-03-06T19:09:22.908Z,97761.75
2023-03-06T19:11:52.125Z,97759.03
2023-03-06T19:14:21.399Z,97758.44
2023-03-06T19:16:50.744Z,97757.50
2023-03-06T19:19:18.542Z,97754.50
2023-03-06T19:21:46.305Z,97761.97
2023-03-06T19:24:14.377Z,97773.28
2023-03-06T19:26:42.256Z,97767.84
2023-03-06T19:29:09.946Z,97769.91
2023-03-06T19:31:37.833Z,97771.31
2023-03-06T19:34:07.138Z,97765.19
2023-03-06T19:36:35.027Z,97764.94
2023-03-06T19:39:05.390Z,97758.56
2023-03-06T19:41:34.109Z,97759.38
2023-03-06T19:44:06.595Z,97752.84
2023-03-06T19:46:36.077Z,97761.16
2023-03-06T19:49:11.616Z,97760.50
2023-03-06T19:51:40.888Z,97744.84
2023-03-06T19:54:08.735Z,97754.09
2023-03-06T19:56:36.735Z,97752.66
2023-03-06T19:59:04.799Z,97750.00
2023-03-06T20:01:34.110Z,97750.16
2023-03-06T20:04:03.248Z,97755.91
2023-03-06T20:06:33.582Z,97751.75
2023-03-06T20:09:04.651Z,97752.13
2023-03-06T20:11:32.467Z,97756.78
2023-03-06T20:14:02.153Z,97749.72
2023-03-06T20:16:30.880Z,97743.56
2023-03-06T20:19:00.410Z,97748.47
2023-03-06T20:21:29.764Z,97737.69
2023-03-06T20:23:58.775Z,97739.78
2023-03-06T20:26:29.821Z,97747.56
2023-03-06T20:28:59.199Z,97740.56
2023-03-06T20:31:29.284Z,97734.63
2023-03-06T20:33:59.578Z,97736.81
2023-03-06T20:36:29.392Z,97728.66
2023-03-06T20:39:00.243Z,97720.25
2023-03-06T20:41:31.216Z,97733.06
2023-03-06T20:43:59.266Z,97740.22
2023-03-06T20:46:27.164Z,97729.28
2023-03-06T20:48:55.912Z,97721.44
2023-03-06T20:51:25.518Z,97732.63
2023-03-06T20:53:54.084Z,97735.44
2023-03-06T20:56:24.693Z,97730.31
2023-03-06T20:58:54.706Z,97723.31
2023-03-06T21:01:24.171Z,97719.97
2023-03-06T21:03:53.094Z,97710.53
2023-03-06T21:06:21.624Z,97716.31
2023-03-06T21:08:49.594Z,97711.13
2023-03-06T21:11:17.722Z,97710.56
2023-03-06T21:13:45.536Z,97713.84
2023-03-06T21:16:18.414Z,97716.63
2023-03-06T21:18:47.286Z,97709.97
2023-03-06T21:21:18.403Z,97699.88
2023-03-06T21:23:46.688Z,97696.53
2023-03-06T21:26:15.883Z,97691.19
2023-03-06T21:28:44.541Z,97696.25
2023-03-06T21:31:15.386Z,97697.41
2023-03-06T21:33:43.887Z,97696.69
2023-03-06T21:36:12.064Z,97687.81
2023-03-06T21:38:40.159Z,97689.22
2023-03-06T21:41:09.684Z,97681.50
2023-03-06T21:43:37.578Z,97677.28
2023-03-06T21:46:05.616Z,97679.59
2023-03-06T21:48:35.083Z,97690.47
2023-03-06T21:51:08.164Z,97685.38
2023-03-06T21:53:36.987Z,97680.84
2023-03-06T21:56:05.751Z,97671.84
2023-03-06T21:58:34.095Z,97678.22
2023-03-06T22:01:02.006Z,97668.00
2023-03-06T22:03:29.731Z,97671.41
2023-03-06T22:06:08.415Z,97666.75
2023-03-06T22:08:36.114Z,97666.41
2023-03-06T22:11:07.747Z,97666.75
2023-03-06T22:13:35.608Z,97666.66
2023-03-06T22:16:03.815Z,97662.13
2023-03-06T22:18:32.046Z,97654.81
2023-03-06T22:21:01.328Z,97658.47
2023-03-06T22:23:28.991Z,97667.53
2023-03-06T22:25:56.867Z,97655.47
2023-03-06T22:28:24.696Z,97659.63
2023-03-06T22:30:52.406Z,97661.22
2023-03-06T22:33:20.158Z,97650.28
2023-03-06T22:35:48.045Z,97669.72
2023-03-06T22:38:19.025Z,97654.97
2023-03-06T22:40:46.753Z,97651.44
2023-03-06T22:43:14.905Z,97650.19
2023-03-06T22:45:42.599Z,97647.22
2023-03-06T22:48:11.393Z,97654.97
2023-03-06T22:50:39.175Z,97655.09
2023-03-06T22:53:06.922Z,97659.78
2023-03-06T22:55:36.986Z,97660.16
2023-03-06T22:58:04.743Z,97659.63
2023-03-06T23:00:32.407Z,97650.69
2023-03-06T23:03:01.170Z,97649.72
2023-03-06T23:05:29.681Z,97643.72
2023-03-06T23:07:57.570Z,97639.53
2023-03-06T23:10:25.577Z,97630.09
2023-03-06T23:13:13.307Z,97635.75
2023-03-06T23:16:03.160Z,97630.03
2023-03-06T23:18:51.465Z,97633.16
2023-03-06T23:21:37.965Z,97631.38
2023-03-06T23:24:25.299Z,97619.22
2023-03-06T23:26:53.082Z,97622.19
2023-03-06T23:29:22.363Z,97614.91
2023-03-06T23:31:50.329Z,97612.09
2023-03-06T23:34:19.868Z,97611.28
2023-03-06T23:36:47.628Z,97618.91
2023-03-06T23:39:16.061Z,97612.97
2023-03-06T23:41:43.909Z,97604.44
2023-03-06T23:44:11.903Z,97613.34
2023-03-06T23:46:41.201Z,97610.63
2023-03-06T23:49:08.988Z,97602.44
2023-03-06T23:51:36.641Z,97606.50
2023-03-06T23:54:04.748Z,97610.75
2023-03-06T23:56:32.581Z,97619.16
2023-03-06T23:59:00.495Z,97606.50
